createdAt,value
2023-02-21T00:02:12.909Z,3.03
2023-02-21T00:05:17.089Z,3.33
2023-02-21T00:08:21.152Z,6.90
2023-02-21T00:11:25.295Z,3.50
2023-02-21T00:14:30.296Z,4.93
2023-02-21T00:17:35.079Z,4.03
2023-02-21T00:20:42.035Z,3.67
2023-02-21T00:23:45.919Z,3.63
2023-02-21T00:26:50.105Z,3.58
2023-02-21T00:29:54.293Z,2.13
2023-02-21T00:32:58.671Z,4.82
2023-02-21T00:36:02.597Z,4.45
2023-02-21T00:39:07.547Z,5.32
2023-02-21T00:42:11.885Z,3.35
2023-02-21T00:45:15.984Z,4.45
2023-02-21T00:48:19.955Z,3.38
2023-02-21T00:51:24.309Z,6.10
2023-02-21T00:54:28.790Z,3.40
2023-02-21T00:57:32.776Z,2.15
2023-02-21T01:00:41.614Z,3.08
2023-02-21T01:03:45.517Z,4.97
2023-02-21T01:06:49.672Z,4.47
2023-02-21T01:09:56.738Z,7.28
2023-02-21T01:13:00.884Z,5.00
2023-02-21T01:16:05.918Z,3.53
2023-02-21T01:19:10.882Z,3.10
2023-02-21T01:22:15.330Z,2.78
2023-02-21T01:25:20.089Z,4.55
2023-02-21T01:28:24.098Z,3.22
2023-02-21T01:31:28.020Z,4.00
2023-02-21T01:34:32.077Z,3.53
2023-02-21T01:37:36.779Z,5.20
2023-02-21T01:40:40.957Z,3.88
2023-02-21T01:43:47.634Z,4.22
2023-02-21T01:46:52.133Z,2.85
2023-02-21T01:49:59.139Z,2.95
2023-02-21T01:53:04.396Z,3.92
2023-02-21T01:56:08.508Z,4.13
2023-02-21T01:59:17.441Z,3.70
2023-02-21T02:02:28.132Z,3.05
2023-02-21T02:05:33.161Z,3.17
2023-02-21T02:08:40.128Z,2.90
2023-02-21T02:11:44.317Z,3.05
2023-02-21T02:14:40.644Z,5.40
2023-02-21T02:17:29.219Z,5.68
2023-02-21T02:20:39.932Z,2.50
2023-02-21T02:23:37.820Z,4.20
2023-02-21T02:26:57.655Z,4.82
2023-02-21T02:30:03.217Z,6.38
2023-02-21T02:33:23.083Z,3.03
2023-02-21T02:36:17.845Z,5.40
2023-02-21T02:39:52.348Z,4.53
2023-02-21T02:43:00.812Z,2.38
2023-02-21T02:45:58.897Z,4.30
2023-02-21T02:48:50.605Z,4.63
2023-02-21T02:51:36.412Z,4.75
2023-02-21T02:54:24.718Z,3.42
2023-02-21T02:57:13.288Z,4.15
2023-02-21T02:59:59.101Z,4.13
2023-02-21T03:02:51.265Z,3.47
2023-02-21T03:05:56.273Z,3.28
2023-02-21T03:08:43.003Z,4.35
2023-02-21T03:11:30.230Z,4.13
2023-02-21T03:14:19.311Z,2.88
2023-02-21T03:17:15.561Z,1.98
2023-02-21T03:20:03.204Z,2.45
2023-02-21T03:22:52.890Z,3.95
2023-02-21T03:25:40.096Z,3.08
2023-02-21T03:28:30.113Z,9.05
2023-02-21T03:31:20.485Z,4.20
2023-02-21T03:34:06.392Z,1.95
2023-02-21T03:36:52.197Z,2.22
2023-02-21T03:39:38.055Z,6.00
2023-02-21T03:42:23.572Z,3.25
2023-02-21T03:45:10.115Z,4.47
2023-02-21T03:47:56.933Z,2.90
2023-02-21T03:50:43.333Z,2.03
2023-02-21T03:53:29.243Z,2.00
2023-02-21T03:56:15.319Z,5.68
2023-02-21T03:59:20.999Z,2.55
2023-02-21T04:02:06.944Z,3.00
2023-02-21T04:04:53.964Z,2.17
2023-02-21T04:07:43.099Z,3.55
2023-02-21T04:10:29.475Z,1.70
2023-02-21T04:13:15.557Z,3.90
2023-02-21T04:16:05.123Z,2.78
2023-02-21T04:18:54.232Z,3.22
2023-02-21T04:21:40.564Z,2.75
2023-02-21T04:24:28.400Z,2.28
2023-02-21T04:27:16.055Z,2.40
2023-02-21T04:30:07.447Z,4.07
2023-02-21T04:32:53.032Z,3.08
2023-02-21T04:35:38.480Z,2.08
2023-02-21T04:38:31.933Z,2.13
2023-02-21T04:41:19.161Z,2.72
2023-02-21T04:44:06.244Z,2.05
2023-02-21T04:46:53.011Z,1.85
2023-02-21T04:49:38.390Z,5.03
2023-02-21T04:52:24.293Z,1.55
2023-02-21T04:55:09.661Z,1.90
2023-02-21T04:57:55.446Z,1.63
2023-02-21T05:00:40.687Z,3.15
2023-02-21T05:03:26.199Z,2.17
2023-02-21T05:06:16.681Z,2.17
2023-02-21T05:09:03.808Z,1.60
2023-02-21T05:11:49.553Z,2.72
2023-02-21T05:14:35.276Z,1.73
2023-02-21T05:17:21.213Z,2.42
2023-02-21T05:20:11.862Z,7.85
2023-02-21T05:23:02.104Z,2.20
2023-02-21T05:25:50.321Z,2.05
2023-02-21T05:28:36.632Z,1.63
2023-02-21T05:31:22.160Z,1.60
2023-02-21T05:34:07.746Z,3.17
2023-02-21T05:36:53.979Z,4.68
2023-02-21T05:39:39.488Z,1.70
2023-02-21T05:42:25.762Z,2.28
2023-02-21T05:45:12.219Z,2.22
2023-02-21T05:48:00.419Z,3.60
2023-02-21T05:50:46.045Z,2.97
2023-02-21T05:53:31.670Z,2.17
2023-02-21T05:56:18.261Z,2.20
2023-02-21T05:59:04.555Z,1.50
2023-02-21T06:01:50.986Z,1.63
2023-02-21T06:04:39.592Z,1.20
2023-02-21T06:07:26.193Z,0.88
2023-02-21T06:10:12.680Z,1.48
2023-02-21T06:12:58.474Z,1.17
2023-02-21T06:15:45.791Z,1.13
2023-02-21T06:18:31.619Z,1.67
2023-02-21T06:21:17.446Z,1.65
2023-02-21T06:24:04.263Z,2.40
2023-02-21T06:26:49.799Z,2.97
2023-02-21T06:29:35.446Z,3.25
2023-02-21T06:32:23.094Z,2.58
2023-02-21T06:35:10.489Z,5.03
2023-02-21T06:37:56.193Z,1.50
2023-02-21T06:40:45.182Z,1.55
2023-02-21T06:43:30.673Z,1.00
2023-02-21T06:46:20.240Z,1.20
2023-02-21T06:49:06.240Z,1.17
2023-02-21T06:51:56.588Z,1.27
2023-02-21T06:54:45.995Z,0.88
2023-02-21T06:57:31.661Z,0.93
2023-02-21T07:00:18.454Z,1.27
2023-02-21T07:03:04.322Z,1.27
2023-02-21T07:05:49.714Z,1.17
2023-02-21T07:08:35.324Z,1.15
2023-02-21T07:11:21.136Z,0.90
2023-02-21T07:14:06.826Z,0.65
2023-02-21T07:16:53.276Z,1.05
2023-02-21T07:19:39.318Z,1.10
2023-02-21T07:22:26.252Z,1.75
2023-02-21T07:25:24.021Z,1.45
2023-02-21T07:28:09.562Z,0.95
2023-02-21T07:30:55.339Z,1.95
2023-02-21T07:33:41.001Z,2.38
2023-02-21T07:36:26.681Z,1.83
2023-02-21T07:39:13.205Z,0.70
2023-02-21T07:41:59.534Z,0.85
2023-02-21T07:44:48.887Z,1.10
2023-02-21T07:47:34.975Z,2.00
2023-02-21T07:50:23.696Z,2.63
2023-02-21T07:53:11.245Z,1.95
2023-02-21T07:55:56.809Z,2.90
2023-02-21T07:58:43.437Z,4.30
2023-02-21T08:01:29.372Z,2.80
2023-02-21T08:04:15.296Z,3.58
2023-02-21T08:07:02.361Z,4.03
2023-02-21T08:09:48.805Z,1.90
2023-02-21T08:12:34.791Z,4.00
2023-02-21T08:15:20.220Z,3.40
2023-02-21T08:18:05.941Z,2.63
2023-02-21T08:20:53.274Z,5.53
2023-02-21T08:23:38.670Z,3.72
2023-02-21T08:26:24.441Z,3.80
2023-02-21T08:29:10.268Z,6.93
2023-02-21T08:31:56.120Z,7.40
2023-02-21T08:34:41.587Z,8.07
2023-02-21T08:37:32.939Z,4.22
2023-02-21T08:40:21.967Z,5.43
2023-02-21T08:43:07.823Z,4.10
2023-02-21T08:45:53.773Z,4.53
2023-02-21T08:48:39.363Z,3.35
2023-02-21T08:51:30.443Z,4.82
2023-02-21T08:54:16.557Z,3.50
2023-02-21T08:57:02.118Z,3.08
2023-02-21T08:59:47.789Z,3.22
2023-02-21T09:02:34.356Z,6.07
2023-02-21T09:05:27.463Z,7.20
2023-02-21T09:08:13.402Z,4.63
2023-02-21T09:11:02.686Z,7.57
2023-02-21T09:13:48.745Z,7.90
2023-02-21T09:16:41.101Z,8.82
2023-02-21T09:19:27.642Z,5.00
2023-02-21T09:22:13.222Z,5.35
2023-02-21T09:25:00.295Z,6.85
2023-02-21T09:27:46.355Z,1.27
2023-02-21T09:30:32.365Z,1.85
2023-02-21T09:33:18.591Z,6.18
2023-02-21T09:36:06.225Z,2.40
2023-02-21T09:38:52.316Z,3.67
2023-02-21T09:41:39.551Z,2.53
2023-02-21T09:44:29.110Z,3.78
2023-02-21T09:47:31.683Z,2.50
2023-02-21T09:50:21.040Z,2.03
2023-02-21T09:53:08.705Z,1.35
2023-02-21T09:56:00.520Z,5.05
2023-02-21T09:58:47.847Z,3.05
2023-02-21T10:01:56.058Z,3.88
2023-02-21T10:05:06.765Z,3.97
2023-02-21T10:08:37.616Z,0.95
2023-02-21T10:11:28.147Z,2.35
2023-02-21T10:14:43.424Z,1.10
2023-02-21T10:17:56.669Z,2.35
2023-02-21T10:20:48.871Z,1.08
2023-02-21T10:23:47.481Z,1.95
2023-02-21T10:26:41.468Z,3.85
2023-02-21T10:29:38.439Z,5.30
2023-02-21T10:32:25.487Z,3.65
2023-02-21T10:35:11.066Z,4.03
2023-02-21T10:37:59.520Z,4.35
2023-02-21T10:40:51.085Z,6.57
2023-02-21T10:43:53.097Z,6.57
2023-02-21T10:47:05.931Z,1.48
2023-02-21T10:50:05.174Z,2.20
2023-02-21T10:52:51.755Z,4.53
2023-02-21T10:55:37.192Z,2.42
2023-02-21T10:58:27.900Z,1.00
2023-02-21T11:01:25.767Z,2.80
2023-02-21T11:04:20.736Z,1.52
2023-02-21T11:07:13.311Z,0.80
2023-02-21T11:09:59.888Z,1.98
2023-02-21T11:12:45.708Z,1.80
2023-02-21T11:15:31.983Z,6.78
2023-02-21T11:18:26.193Z,1.27
2023-02-21T11:21:19.800Z,1.30
2023-02-21T11:24:07.615Z,2.00
2023-02-21T11:26:54.395Z,7.05
2023-02-21T11:29:44.620Z,4.05
2023-02-21T11:32:38.901Z,4.80
2023-02-21T11:35:32.812Z,3.92
2023-02-21T11:38:35.974Z,2.95
2023-02-21T11:41:36.836Z,3.13
2023-02-21T11:44:27.077Z,4.72
2023-02-21T11:47:21.871Z,4.20
2023-02-21T11:50:15.600Z,4.03
2023-02-21T11:53:30.246Z,4.03
2023-02-21T11:56:22.130Z,6.80
2023-02-21T11:59:22.378Z,3.30
2023-02-21T12:02:52.981Z,3.42
2023-02-21T12:06:18.421Z,3.72
2023-02-21T12:09:25.257Z,2.60
2023-02-21T12:12:13.677Z,0.80
2023-02-21T12:15:19.678Z,4.93
2023-02-21T12:18:28.334Z,3.50
2023-02-21T12:21:40.171Z,3.67
2023-02-21T12:24:44.623Z,1.85
2023-02-21T12:28:13.989Z,3.75
2023-02-21T12:31:16.070Z,2.92
2023-02-21T12:34:17.699Z,1.92
2023-02-21T12:37:06.151Z,1.60
2023-02-21T12:40:10.189Z,2.10
2023-02-21T12:43:16.843Z,5.03
2023-02-21T12:46:12.800Z,9.18
2023-02-21T12:49:14.924Z,2.10
2023-02-21T12:52:17.564Z,3.03
2023-02-21T12:58:11.724Z,1.38
2023-02-21T13:01:20.837Z,3.70
2023-02-21T13:04:38.261Z,3.00
2023-02-21T13:07:36.957Z,1.90
2023-02-21T13:10:26.474Z,2.05
2023-02-21T13:13:16.221Z,2.25
2023-02-21T13:16:07.240Z,6.32
2023-02-21T13:19:04.365Z,2.65
2023-02-21T13:21:53.246Z,5.32
2023-02-21T13:25:12.493Z,4.50
2023-02-21T13:28:11.191Z,2.20
2023-02-21T13:31:02.715Z,0.85
2023-02-21T13:33:56.782Z,6.55
2023-02-21T13:36:46.097Z,10.20
2023-02-21T13:39:38.120Z,3.08
2023-02-21T13:42:27.432Z,3.55
2023-02-21T13:45:13.364Z,2.17
2023-02-21T13:48:00.219Z,10.57
2023-02-21T13:50:49.604Z,3.13
2023-02-21T13:54:21.028Z,3.65
2023-02-21T13:57:33.620Z,5.82
2023-02-21T14:00:25.391Z,6.32
2023-02-21T14:03:12.690Z,6.38
2023-02-21T14:05:58.521Z,9.75
2023-02-21T14:08:49.227Z,6.43
2023-02-21T14:11:39.018Z,4.43
2023-02-21T14:14:32.290Z,4.72
2023-02-21T14:17:28.405Z,13.75
2023-02-21T14:20:22.159Z,4.00
2023-02-21T14:23:15.727Z,5.63
2023-02-21T14:26:04.026Z,4.82
2023-02-21T14:28:59.797Z,2.05
2023-02-21T14:32:16.756Z,2.63
2023-02-21T14:35:33.732Z,1.75
2023-02-21T14:38:26.454Z,5.10
2023-02-21T14:41:39.831Z,5.10
2023-02-21T14:44:51.005Z,3.60
2023-02-21T14:48:06.150Z,4.43
2023-02-21T14:51:15.503Z,5.07
2023-02-21T14:54:28.932Z,7.47
2023-02-21T14:57:36.043Z,2.50
2023-02-21T15:00:44.047Z,4.18
2023-02-21T15:03:36.317Z,1.95
2023-02-21T15:06:25.438Z,4.43
2023-02-21T15:09:14.138Z,2.13
2023-02-21T15:12:00.325Z,3.20
2023-02-21T15:14:52.153Z,2.22
2023-02-21T15:17:39.572Z,5.03
2023-02-21T15:20:25.633Z,4.97
2023-02-21T15:23:16.031Z,3.85
2023-02-21T15:26:15.274Z,3.75
2023-02-21T15:29:10.055Z,5.70
2023-02-21T15:31:57.249Z,2.45
2023-02-21T15:34:46.692Z,6.15
2023-02-21T15:37:36.120Z,3.70
2023-02-21T15:40:25.712Z,4.40
2023-02-21T15:43:34.418Z,3.53
2023-02-21T15:46:48.344Z,6.82
2023-02-21T15:49:43.057Z,3.90
2023-02-21T15:52:51.430Z,3.17
2023-02-21T15:55:37.847Z,1.85
2023-02-21T15:58:28.301Z,5.55
2023-02-21T16:01:14.163Z,4.60
2023-02-21T16:04:18.901Z,5.43
2023-02-21T16:07:06.816Z,3.85
2023-02-21T16:10:00.282Z,3.15
2023-02-21T16:12:46.850Z,2.78
2023-02-21T16:15:38.078Z,6.35
2023-02-21T16:18:23.716Z,6.45
2023-02-21T16:21:23.399Z,5.05
2023-02-21T16:24:35.306Z,3.97
2023-02-21T16:27:20.970Z,3.47
2023-02-21T16:30:11.611Z,5.07
2023-02-21T16:33:03.512Z,5.28
2023-02-21T16:38:35.361Z,5.50
2023-02-21T16:41:24.025Z,6.57
2023-02-21T16:44:10.058Z,8.13
2023-02-21T16:46:55.583Z,2.65
2023-02-21T16:49:42.425Z,1.98
2023-02-21T16:52:29.018Z,4.78
2023-02-21T16:55:16.935Z,6.93
2023-02-21T16:58:06.469Z,4.60
2023-02-21T17:01:01.436Z,5.05
2023-02-21T17:03:47.879Z,3.38
2023-02-21T17:06:34.436Z,5.20
2023-02-21T17:09:22.540Z,5.07
2023-02-21T17:12:08.943Z,7.70
2023-02-21T17:14:54.737Z,6.85
2023-02-21T17:17:42.909Z,3.40
2023-02-21T17:20:30.399Z,8.88
2023-02-21T17:23:15.998Z,10.52
2023-02-21T17:26:01.885Z,10.48
2023-02-21T17:28:47.927Z,9.50
2023-02-21T17:31:34.156Z,7.90
2023-02-21T17:34:20.798Z,5.45
2023-02-21T17:37:06.501Z,7.20
2023-02-21T17:39:53.763Z,3.78
2023-02-21T17:42:40.358Z,7.78
2023-02-21T17:45:27.209Z,12.13
2023-02-21T17:48:12.677Z,4.32
2023-02-21T17:50:58.573Z,11.30
2023-02-21T17:53:45.615Z,7.20
2023-02-21T17:56:31.529Z,6.80
2023-02-21T17:59:19.549Z,8.75
2023-02-21T18:02:08.238Z,6.38
2023-02-21T18:04:54.887Z,9.73
2023-02-21T18:07:41.069Z,6.10
2023-02-21T18:10:28.065Z,10.25
2023-02-21T18:13:14.648Z,6.47
2023-02-21T18:16:05.489Z,12.73
2023-02-21T18:18:51.448Z,8.52
2023-02-21T18:21:41.530Z,8.40
2023-02-21T18:24:27.852Z,10.50
2023-02-21T18:27:15.799Z,5.70
2023-02-21T18:30:03.379Z,10.23
2023-02-21T18:32:49.223Z,17.40
2023-02-21T18:35:38.046Z,7.18
2023-02-21T18:38:24.189Z,9.13
2023-02-21T18:41:12.493Z,14.75
2023-02-21T18:43:58.346Z,4.82
2023-02-21T18:46:55.662Z,6.72
2023-02-21T18:49:43.977Z,5.88
2023-02-21T18:52:29.822Z,6.95
2023-02-21T18:55:19.024Z,9.07
2023-02-21T18:58:06.596Z,4.85
2023-02-21T19:00:52.557Z,5.05
2023-02-21T19:03:38.266Z,13.13
2023-02-21T19:06:25.036Z,10.25
2023-02-21T19:09:11.582Z,10.13
2023-02-21T19:11:57.115Z,9.55
2023-02-21T19:14:42.953Z,10.55
2023-02-21T19:17:28.752Z,8.43
2023-02-21T19:20:16.333Z,9.13
2023-02-21T19:23:03.147Z,5.10
2023-02-21T19:25:49.506Z,6.20
2023-02-21T19:28:38.601Z,5.05
2023-02-21T19:31:24.658Z,7.32
2023-02-21T19:34:10.641Z,8.32
2023-02-21T19:36:56.578Z,8.70
2023-02-21T19:39:43.379Z,8.80
2023-02-21T19:42:42.543Z,5.05
2023-02-21T19:45:29.007Z,2.83
2023-02-21T19:48:20.715Z,6.78
2023-02-21T19:51:06.268Z,5.93
2023-02-21T19:53:52.421Z,9.43
2023-02-21T19:56:39.758Z,4.32
2023-02-21T19:59:26.933Z,3.75
2023-02-21T20:02:15.030Z,5.50
2023-02-21T20:05:01.669Z,4.43
2023-02-21T20:07:47.734Z,6.13
2023-02-21T20:10:34.980Z,3.75
2023-02-21T20:13:26.909Z,5.22
2023-02-21T20:16:17.179Z,5.30
2023-02-21T20:19:03.289Z,6.70
2023-02-21T20:21:51.754Z,5.03
2023-02-21T20:24:38.365Z,6.15
2023-02-21T20:27:23.961Z,6.90
2023-02-21T20:30:11.891Z,5.40
2023-02-21T20:32:58.864Z,5.68
2023-02-21T20:35:45.739Z,4.70
2023-02-21T20:38:36.987Z,11.93
2023-02-21T20:41:23.881Z,13.98
2023-02-21T20:44:09.611Z,6.65
2023-02-21T20:46:58.340Z,11.55
2023-02-21T20:49:47.957Z,7.45
2023-02-21T20:52:34.849Z,5.88
2023-02-21T20:55:22.238Z,7.28
2023-02-21T20:58:11.249Z,7.38
2023-02-21T21:00:56.874Z,8.55
2023-02-21T21:03:43.715Z,5.68
2023-02-21T21:06:29.808Z,10.43
2023-02-21T21:09:17.962Z,12.55
2023-02-21T21:12:09.944Z,15.10
2023-02-21T21:14:55.649Z,16.48
2023-02-21T21:17:41.774Z,15.93
2023-02-21T21:20:27.432Z,15.27
2023-02-21T21:23:12.902Z,18.98
2023-02-21T21:26:01.932Z,20.85
2023-02-21T21:28:48.654Z,13.25
2023-02-21T21:31:34.328Z,11.75
2023-02-21T21:34:23.151Z,8.52
2023-02-21T21:37:10.153Z,17.98
2023-02-21T21:39:57.037Z,27.45
2023-02-21T21:42:49.012Z,25.55
2023-02-21T21:45:44.169Z,30.98
2023-02-21T21:48:29.788Z,23.95
2023-02-21T21:51:15.814Z,21.75
2023-02-21T21:54:03.468Z,15.43
2023-02-21T21:56:48.948Z,18.63
2023-02-21T21:59:38.024Z,23.50
2023-02-21T22:02:23.638Z,18.40
2023-02-21T22:05:09.937Z,17.67
2023-02-21T22:07:56.603Z,21.60
2023-02-21T22:10:44.541Z,20.20
2023-02-21T22:13:29.962Z,23.13
2023-02-21T22:16:15.871Z,16.27
2023-02-21T22:19:01.423Z,17.48
2023-02-21T22:21:47.648Z,21.58
2023-02-21T22:24:33.699Z,31.02
2023-02-21T22:27:20.925Z,26.58
2023-02-21T22:30:09.277Z,24.98
2023-02-21T22:32:54.873Z,17.15
2023-02-21T22:35:41.427Z,16.63
2023-02-21T22:38:27.703Z,50.08
2023-02-21T22:41:27.572Z,35.17
2023-02-21T22:44:13.865Z,34.50
2023-02-21T22:46:59.991Z,15.20
2023-02-21T22:49:47.144Z,20.10
2023-02-21T22:52:33.975Z,20.23
2023-02-21T22:55:19.461Z,15.77
2023-02-21T22:58:09.334Z,29.65
2023-02-21T23:00:55.118Z,11.57
2023-02-21T23:03:40.721Z,16.17
2023-02-21T23:06:26.290Z,19.42
2023-02-21T23:09:13.211Z,17.20
2023-02-21T23:12:00.177Z,17.63
2023-02-21T23:14:48.193Z,15.68
2023-02-21T23:17:33.965Z,16.92
2023-02-21T23:20:26.884Z,10.35
2023-02-21T23:23:14.222Z,11.43
2023-02-21T23:25:59.949Z,8.68
2023-02-21T23:28:46.265Z,13.18
2023-02-21T23:31:31.817Z,12.30
2023-02-21T23:34:17.448Z,12.88
2023-02-21T23:37:07.171Z,11.80
2023-02-21T23:39:52.675Z,13.02
2023-02-21T23:42:40.944Z,10.38
2023-02-21T23:45:26.751Z,8.82
2023-02-21T23:48:16.117Z,8.93
2023-02-21T23:51:01.748Z,11.40
2023-02-21T23:53:47.081Z,8.25
2023-02-21T23:56:32.572Z,12.15
2023-02-21T23:59:17.944Z,11.02
